sensor_id;sensor_type;location;lat;lon;timestamp;P1;durP1;ratioP1;P2;durP2;ratioP2
33254;SDS011;19623;52.482;9.762;2022-09-13T00:00:14;341.98;;;318.60;;
33254;SDS011;19623;52.482;9.762;2022-09-13T00:02:39;366.83;;;341.20;;
33254;SDS011;19623;52.482;9.762;2022-09-13T00:05:05;337.73;;;314.48;;
33254;SDS011;19623;52.482;9.762;2022-09-13T00:07:31;321.00;;;299.33;;
33254;SDS011;19623;52.482;9.762;2022-09-13T00:09:57;349.45;;;325.55;;
33254;SDS011;19623;52.482;9.762;2022-09-13T00:12:23;361.20;;;336.13;;
33254;SDS011;19623;52.482;9.762;2022-09-13T00:14:49;369.40;;;343.60;;
33254;SDS011;19623;52.482;9.762;2022-09-13T00:17:15;362.77;;;337.73;;
33254;SDS011;19623;52.482;9.762;2022-09-13T00:19:40;338.40;;;315.55;;
33254;SDS011;19623;52.482;9.762;2022-09-13T00:22:06;314.60;;;293.60;;
33254;SDS011;19623;52.482;9.762;2022-09-13T00:24:32;334.58;;;312.17;;
33254;SDS011;19623;52.482;9.762;2022-09-13T00:26:59;280.77;;;262.63;;
33254;SDS011;19623;52.482;9.762;2022-09-13T00:29:25;291.75;;;272.73;;
33254;SDS011;19623;52.482;9.762;2022-09-13T00:31:51;294.15;;;274.70;;
33254;SDS011;19623;52.482;9.762;2022-09-13T00:34:17;260.83;;;243.90;;
33254;SDS011;19623;52.482;9.762;2022-09-13T00:36:43;274.17;;;256.40;;
33254;SDS011;19623;52.482;9.762;2022-09-13T00:39:09;272.15;;;254.73;;
33254;SDS011;19623;52.482;9.762;2022-09-13T00:41:35;246.27;;;230.70;;
33254;SDS011;19623;52.482;9.762;2022-09-13T00:44:01;245.65;;;229.85;;
33254;SDS011;19623;52.482;9.762;2022-09-13T00:51:33;263.52;;;246.30;;
33254;SDS011;19623;52.482;9.762;2022-09-13T00:53:59;274.40;;;256.73;;
33254;SDS011;19623;52.482;9.762;2022-09-13T00:56:29;305.52;;;285.50;;
33254;SDS011;19623;52.482;9.762;2022-09-13T00:59:04;290.30;;;271.10;;
33254;SDS011;19623;52.482;9.762;2022-09-13T01:01:40;276.70;;;258.95;;
33254;SDS011;19623;52.482;9.762;2022-09-13T01:04:10;288.40;;;269.85;;
33254;SDS011;19623;52.482;9.762;2022-09-13T01:06:36;301.02;;;281.48;;
33254;SDS011;19623;52.482;9.762;2022-09-13T01:09:04;298.60;;;279.10;;
33254;SDS011;19623;52.482;9.762;2022-09-13T01:11:46;295.70;;;276.20;;
33254;SDS011;19623;52.482;9.762;2022-09-13T01:14:23;310.95;;;290.45;;
33254;SDS011;19623;52.482;9.762;2022-09-13T01:16:49;320.98;;;299.73;;
33254;SDS011;19623;52.482;9.762;2022-09-13T01:19:16;319.20;;;297.70;;
33254;SDS011;19623;52.482;9.762;2022-09-13T01:21:58;308.90;;;288.60;;
33254;SDS011;19623;52.482;9.762;2022-09-13T01:24:54;282.25;;;263.92;;
33254;SDS011;19623;52.482;9.762;2022-09-13T01:41:05;245.85;;;230.45;;
33254;SDS011;19623;52.482;9.762;2022-09-13T01:46:34;247.40;;;231.73;;
33254;SDS011;19623;52.482;9.762;2022-09-13T01:49:18;245.85;;;230.43;;
33254;SDS011;19623;52.482;9.762;2022-09-13T01:59:53;218.18;;;204.50;;
33254;SDS011;19623;52.482;9.762;2022-09-13T02:05:13;259.77;;;243.15;;
33254;SDS011;19623;52.482;9.762;2022-09-13T02:07:42;265.63;;;248.68;;
33254;SDS011;19623;52.482;9.762;2022-09-13T02:10:13;246.45;;;231.10;;
33254;SDS011;19623;52.482;9.762;2022-09-13T02:13:03;254.95;;;238.65;;
33254;SDS011;19623;52.482;9.762;2022-09-13T02:15:52;262.30;;;245.40;;
33254;SDS011;19623;52.482;9.762;2022-09-13T02:20:50;308.65;;;288.13;;
33254;SDS011;19623;52.482;9.762;2022-09-13T02:23:27;244.82;;;229.35;;
33254;SDS011;19623;52.482;9.762;2022-09-13T02:25:58;224.65;;;210.70;;
33254;SDS011;19623;52.482;9.762;2022-09-13T02:28:27;246.10;;;230.63;;
33254;SDS011;19623;52.482;9.762;2022-09-13T02:30:59;249.27;;;233.85;;
33254;SDS011;19623;52.482;9.762;2022-09-13T02:33:31;242.25;;;226.90;;
33254;SDS011;19623;52.482;9.762;2022-09-13T02:36:01;300.75;;;281.17;;
33254;SDS011;19623;52.482;9.762;2022-09-13T02:38:45;275.92;;;258.00;;
33254;SDS011;19623;52.482;9.762;2022-09-13T02:44:04;274.67;;;256.85;;
33254;SDS011;19623;52.482;9.762;2022-09-13T02:51:55;262.25;;;245.45;;
33254;SDS011;19623;52.482;9.762;2022-09-13T02:55:12;223.73;;;209.55;;
33254;SDS011;19623;52.482;9.762;2022-09-13T02:57:37;195.63;;;183.48;;
33254;SDS011;19623;52.482;9.762;2022-09-13T03:00:09;225.25;;;210.98;;
33254;SDS011;19623;52.482;9.762;2022-09-13T03:02:35;249.07;;;232.98;;
33254;SDS011;19623;52.482;9.762;2022-09-13T03:05:04;242.85;;;227.60;;
33254;SDS011;19623;52.482;9.762;2022-09-13T03:07:30;220.07;;;206.18;;
33254;SDS011;19623;52.482;9.762;2022-09-13T03:10:17;279.58;;;261.58;;
33254;SDS011;19623;52.482;9.762;2022-09-13T03:43:01;275.40;;;257.30;;
33254;SDS011;19623;52.482;9.762;2022-09-13T03:45:37;238.85;;;223.55;;
33254;SDS011;19623;52.482;9.762;2022-09-13T03:48:17;229.60;;;214.80;;
33254;SDS011;19623;52.482;9.762;2022-09-13T03:50:44;254.25;;;238.25;;
33254;SDS011;19623;52.482;9.762;2022-09-13T03:53:12;265.40;;;248.18;;
33254;SDS011;19623;52.482;9.762;2022-09-13T03:55:43;257.83;;;241.20;;
33254;SDS011;19623;52.482;9.762;2022-09-13T03:58:10;267.05;;;249.73;;
33254;SDS011;19623;52.482;9.762;2022-09-13T04:00:42;242.65;;;227.23;;
33254;SDS011;19623;52.482;9.762;2022-09-13T04:03:08;254.38;;;237.85;;
33254;SDS011;19623;52.482;9.762;2022-09-13T04:05:34;205.70;;;192.85;;
33254;SDS011;19623;52.482;9.762;2022-09-13T04:08:00;205.13;;;192.25;;
33254;SDS011;19623;52.482;9.762;2022-09-13T04:10:29;216.70;;;203.18;;
33254;SDS011;19623;52.482;9.762;2022-09-13T04:12:57;226.50;;;212.48;;
33254;SDS011;19623;52.482;9.762;2022-09-13T04:15:24;183.10;;;171.50;;
33254;SDS011;19623;52.482;9.762;2022-09-13T04:17:54;181.68;;;170.45;;
33254;SDS011;19623;52.482;9.762;2022-09-13T04:20:20;202.27;;;189.57;;
33254;SDS011;19623;52.482;9.762;2022-09-13T04:22:52;205.82;;;192.55;;
33254;SDS011;19623;52.482;9.762;2022-09-13T04:25:19;232.65;;;217.95;;
33254;SDS011;19623;52.482;9.762;2022-09-13T04:27:45;242.80;;;227.45;;
33254;SDS011;19623;52.482;9.762;2022-09-13T04:30:11;229.10;;;214.88;;
33254;SDS011;19623;52.482;9.762;2022-09-13T04:32:37;214.43;;;200.95;;
33254;SDS011;19623;52.482;9.762;2022-09-13T04:35:03;208.85;;;195.52;;
33254;SDS011;19623;52.482;9.762;2022-09-13T04:37:29;219.23;;;205.15;;
33254;SDS011;19623;52.482;9.762;2022-09-13T04:39:54;182.18;;;170.75;;
33254;SDS011;19623;52.482;9.762;2022-09-13T04:42:20;206.70;;;193.70;;
33254;SDS011;19623;52.482;9.762;2022-09-13T04:44:46;184.30;;;172.95;;
33254;SDS011;19623;52.482;9.762;2022-09-13T04:47:13;193.98;;;181.70;;
33254;SDS011;19623;52.482;9.762;2022-09-13T04:49:39;215.80;;;201.75;;
33254;SDS011;19623;52.482;9.762;2022-09-13T04:52:05;215.70;;;202.20;;
33254;SDS011;19623;52.482;9.762;2022-09-13T04:54:30;202.85;;;189.68;;
33254;SDS011;19623;52.482;9.762;2022-09-13T04:56:56;209.07;;;195.75;;
33254;SDS011;19623;52.482;9.762;2022-09-13T04:59:22;219.43;;;205.45;;
33254;SDS011;19623;52.482;9.762;2022-09-13T05:01:47;181.18;;;169.82;;
33254;SDS011;19623;52.482;9.762;2022-09-13T05:04:13;182.50;;;171.15;;
33254;SDS011;19623;52.482;9.762;2022-09-13T05:06:39;208.55;;;195.35;;
33254;SDS011;19623;52.482;9.762;2022-09-13T05:09:04;222.13;;;208.25;;
33254;SDS011;19623;52.482;9.762;2022-09-13T05:11:30;202.00;;;189.20;;
33254;SDS011;19623;52.482;9.762;2022-09-13T05:13:57;447.67;;;415.55;;
33254;SDS011;19623;52.482;9.762;2022-09-13T05:16:28;445.63;;;413.85;;
33254;SDS011;19623;52.482;9.762;2022-09-13T05:18:56;433.40;;;402.25;;
33254;SDS011;19623;52.482;9.762;2022-09-13T05:21:22;452.58;;;420.35;;
33254;SDS011;19623;52.482;9.762;2022-09-13T05:23:48;433.80;;;402.90;;
33254;SDS011;19623;52.482;9.762;2022-09-13T05:26:16;425.90;;;396.08;;
33254;SDS011;19623;52.482;9.762;2022-09-13T05:28:42;399.05;;;371.48;;
33254;SDS011;19623;52.482;9.762;2022-09-13T05:31:12;399.90;;;372.15;;
33254;SDS011;19623;52.482;9.762;2022-09-13T05:33:44;405.52;;;377.30;;
33254;SDS011;19623;52.482;9.762;2022-09-13T05:36:11;370.98;;;345.95;;
33254;SDS011;19623;52.482;9.762;2022-09-13T05:38:37;402.80;;;375.27;;
33254;SDS011;19623;52.482;9.762;2022-09-13T05:41:03;372.73;;;347.65;;
33254;SDS011;19623;52.482;9.762;2022-09-13T05:43:31;382.38;;;356.20;;
33254;SDS011;19623;52.482;9.762;2022-09-13T05:46:02;384.63;;;358.63;;
33254;SDS011;19623;52.482;9.762;2022-09-13T05:48:28;327.08;;;305.73;;
33254;SDS011;19623;52.482;9.762;2022-09-13T05:50:54;342.10;;;319.77;;
33254;SDS011;19623;52.482;9.762;2022-09-13T05:53:20;332.75;;;310.92;;
33254;SDS011;19623;52.482;9.762;2022-09-13T05:55:46;331.25;;;309.08;;
33254;SDS011;19623;52.482;9.762;2022-09-13T05:58:11;350.80;;;327.80;;
33254;SDS011;19623;52.482;9.762;2022-09-13T06:00:37;291.98;;;273.13;;
33254;SDS011;19623;52.482;9.762;2022-09-13T06:03:03;262.55;;;245.88;;
33254;SDS011;19623;52.482;9.762;2022-09-13T06:05:28;320.92;;;300.08;;
33254;SDS011;19623;52.482;9.762;2022-09-13T06:07:54;327.02;;;305.25;;
33254;SDS011;19623;52.482;9.762;2022-09-13T06:10:20;335.58;;;313.60;;
33254;SDS011;19623;52.482;9.762;2022-09-13T06:12:45;338.02;;;315.85;;
33254;SDS011;19623;52.482;9.762;2022-09-13T06:15:11;314.45;;;294.10;;
33254;SDS011;19623;52.482;9.762;2022-09-13T06:17:37;267.85;;;250.90;;
33254;SDS011;19623;52.482;9.762;2022-09-13T06:20:03;275.98;;;258.15;;
33254;SDS011;19623;52.482;9.762;2022-09-13T06:22:30;286.85;;;268.35;;
33254;SDS011;19623;52.482;9.762;2022-09-13T06:25:00;310.13;;;289.58;;
33254;SDS011;19623;52.482;9.762;2022-09-13T06:27:28;310.58;;;290.55;;
33254;SDS011;19623;52.482;9.762;2022-09-13T06:29:54;304.88;;;285.13;;
33254;SDS011;19623;52.482;9.762;2022-09-13T06:32:20;308.02;;;288.15;;
33254;SDS011;19623;52.482;9.762;2022-09-13T06:34:46;282.65;;;264.55;;
33254;SDS011;19623;52.482;9.762;2022-09-13T06:37:12;312.02;;;291.67;;
33254;SDS011;19623;52.482;9.762;2022-09-13T06:39:38;313.58;;;293.60;;
33254;SDS011;19623;52.482;9.762;2022-09-13T06:42:03;326.40;;;305.58;;
33254;SDS011;19623;52.482;9.762;2022-09-13T06:44:29;316.00;;;295.20;;
33254;SDS011;19623;52.482;9.762;2022-09-13T06:46:55;299.83;;;280.88;;
33254;SDS011;19623;52.482;9.762;2022-09-13T06:49:24;333.33;;;312.05;;
33254;SDS011;19623;52.482;9.762;2022-09-13T06:51:49;295.48;;;276.58;;
33254;SDS011;19623;52.482;9.762;2022-09-13T06:54:15;292.88;;;274.45;;
33254;SDS011;19623;52.482;9.762;2022-09-13T06:56:43;273.15;;;255.85;;
33254;SDS011;19623;52.482;9.762;2022-09-13T06:59:09;273.60;;;256.00;;
33254;SDS011;19623;52.482;9.762;2022-09-13T07:04:10;342.13;;;319.25;;
33254;SDS011;19623;52.482;9.762;2022-09-13T07:06:38;323.08;;;302.17;;
33254;SDS011;19623;52.482;9.762;2022-09-13T07:09:07;305.73;;;286.15;;
33254;SDS011;19623;52.482;9.762;2022-09-13T07:11:37;298.40;;;278.92;;
33254;SDS011;19623;52.482;9.762;2022-09-13T07:14:03;286.65;;;268.45;;
33254;SDS011;19623;52.482;9.762;2022-09-13T07:16:33;308.98;;;289.13;;
33254;SDS011;19623;52.482;9.762;2022-09-13T07:19:09;314.70;;;294.48;;
33254;SDS011;19623;52.482;9.762;2022-09-13T07:21:38;291.83;;;273.27;;
33254;SDS011;19623;52.482;9.762;2022-09-13T07:24:04;280.23;;;262.27;;
33254;SDS011;19623;52.482;9.762;2022-09-13T07:26:30;293.70;;;275.00;;
33254;SDS011;19623;52.482;9.762;2022-09-13T07:28:56;334.95;;;313.40;;
33254;SDS011;19623;52.482;9.762;2022-09-13T07:31:31;316.63;;;295.92;;
33254;SDS011;19623;52.482;9.762;2022-09-13T07:33:59;293.38;;;274.45;;
33254;SDS011;19623;52.482;9.762;2022-09-13T07:36:30;275.80;;;258.25;;
33254;SDS011;19623;52.482;9.762;2022-09-13T07:38:58;306.60;;;286.80;;
33254;SDS011;19623;52.482;9.762;2022-09-13T07:41:25;299.13;;;279.98;;
33254;SDS011;19623;52.482;9.762;2022-09-13T07:43:52;307.05;;;287.42;;
33254;SDS011;19623;52.482;9.762;2022-09-13T07:46:19;261.00;;;244.40;;
33254;SDS011;19623;52.482;9.762;2022-09-13T07:48:47;270.77;;;253.35;;
33254;SDS011;19623;52.482;9.762;2022-09-13T07:51:16;285.17;;;267.25;;
33254;SDS011;19623;52.482;9.762;2022-09-13T07:53:44;315.15;;;294.95;;
33254;SDS011;19623;52.482;9.762;2022-09-13T07:56:12;309.00;;;289.48;;
33254;SDS011;19623;52.482;9.762;2022-09-13T07:58:40;275.33;;;257.27;;
33254;SDS011;19623;52.482;9.762;2022-09-13T08:01:14;274.52;;;256.92;;
33254;SDS011;19623;52.482;9.762;2022-09-13T08:03:55;248.98;;;233.25;;
33254;SDS011;19623;52.482;9.762;2022-09-13T08:06:25;282.48;;;264.33;;
33254;SDS011;19623;52.482;9.762;2022-09-13T08:08:52;314.98;;;294.38;;
33254;SDS011;19623;52.482;9.762;2022-09-13T08:11:22;292.55;;;273.75;;
33254;SDS011;19623;52.482;9.762;2022-09-13T08:13:51;264.17;;;246.95;;
33254;SDS011;19623;52.482;9.762;2022-09-13T08:16:18;274.20;;;256.25;;
33254;SDS011;19623;52.482;9.762;2022-09-13T08:18:46;294.25;;;274.98;;
33254;SDS011;19623;52.482;9.762;2022-09-13T08:21:14;306.02;;;285.83;;
33254;SDS011;19623;52.482;9.762;2022-09-13T08:23:45;350.13;;;326.95;;
33254;SDS011;19623;52.482;9.762;2022-09-13T08:26:15;306.33;;;286.08;;
33254;SDS011;19623;52.482;9.762;2022-09-13T08:28:41;348.98;;;325.42;;
33254;SDS011;19623;52.482;9.762;2022-09-13T08:33:41;317.52;;;296.52;;
33254;SDS011;19623;52.482;9.762;2022-09-13T08:36:11;288.58;;;269.40;;
33254;SDS011;19623;52.482;9.762;2022-09-13T08:38:36;298.27;;;278.73;;
33254;SDS011;19623;52.482;9.762;2022-09-13T08:41:03;310.75;;;290.08;;
33254;SDS011;19623;52.482;9.762;2022-09-13T08:46:34;261.42;;;244.38;;
33254;SDS011;19623;52.482;9.762;2022-09-13T08:49:07;268.13;;;250.57;;
33254;SDS011;19623;52.482;9.762;2022-09-13T08:51:52;233.70;;;219.02;;
33254;SDS011;19623;52.482;9.762;2022-09-13T08:54:20;251.40;;;234.93;;
33254;SDS011;19623;52.482;9.762;2022-09-13T09:02:40;262.17;;;245.15;;
33254;SDS011;19623;52.482;9.762;2022-09-13T09:05:27;270.63;;;253.18;;
33254;SDS011;19623;52.482;9.762;2022-09-13T09:07:59;239.98;;;224.50;;
33254;SDS011;19623;52.482;9.762;2022-09-13T09:13:16;215.00;;;201.23;;
33254;SDS011;19623;52.482;9.762;2022-09-13T09:16:39;232.45;;;217.18;;
33254;SDS011;19623;52.482;9.762;2022-09-13T09:19:03;226.45;;;211.77;;
33254;SDS011;19623;52.482;9.762;2022-09-13T09:21:43;216.13;;;202.40;;
33254;SDS011;19623;52.482;9.762;2022-09-13T09:24:14;221.75;;;207.52;;
33254;SDS011;19623;52.482;9.762;2022-09-13T09:26:54;221.70;;;207.27;;
33254;SDS011;19623;52.482;9.762;2022-09-13T09:29:23;220.88;;;206.80;;
33254;SDS011;19623;52.482;9.762;2022-09-13T09:37:19;223.27;;;209.20;;
33254;SDS011;19623;52.482;9.762;2022-09-13T09:39:47;211.13;;;197.63;;
33254;SDS011;19623;52.482;9.762;2022-09-13T09:42:26;204.07;;;190.93;;
33254;SDS011;19623;52.482;9.762;2022-09-13T09:44:55;195.25;;;182.68;;
33254;SDS011;19623;52.482;9.762;2022-09-13T09:47:49;245.50;;;229.85;;
33254;SDS011;19623;52.482;9.762;2022-09-13T09:50:16;283.80;;;265.52;;
33254;SDS011;19623;52.482;9.762;2022-09-13T09:52:57;270.80;;;253.50;;
33254;SDS011;19623;52.482;9.762;2022-09-13T09:56:05;259.33;;;242.82;;
33254;SDS011;19623;52.482;9.762;2022-09-13T09:58:44;231.38;;;216.93;;
33254;SDS011;19623;52.482;9.762;2022-09-13T10:04:06;252.15;;;236.07;;
33254;SDS011;19623;52.482;9.762;2022-09-13T10:06:32;250.40;;;234.32;;
33254;SDS011;19623;52.482;9.762;2022-09-13T10:09:01;250.00;;;233.57;;
33254;SDS011;19623;52.482;9.762;2022-09-13T10:11:43;220.23;;;205.73;;
33254;SDS011;19623;52.482;9.762;2022-09-13T10:14:26;221.02;;;206.63;;
33254;SDS011;19623;52.482;9.762;2022-09-13T10:17:12;252.40;;;235.80;;
33254;SDS011;19623;52.482;9.762;2022-09-13T10:19:39;221.30;;;207.35;;
33254;SDS011;19623;52.482;9.762;2022-09-13T10:22:10;237.32;;;222.00;;
33254;SDS011;19623;52.482;9.762;2022-09-13T10:24:36;225.90;;;211.45;;
33254;SDS011;19623;52.482;9.762;2022-09-13T10:27:03;239.50;;;223.98;;
33254;SDS011;19623;52.482;9.762;2022-09-13T10:29:42;219.07;;;204.57;;
33254;SDS011;19623;52.482;9.762;2022-09-13T10:32:13;212.18;;;198.65;;
33254;SDS011;19623;52.482;9.762;2022-09-13T10:34:43;201.93;;;189.05;;
33254;SDS011;19623;52.482;9.762;2022-09-13T10:37:15;210.43;;;196.90;;
33254;SDS011;19623;52.482;9.762;2022-09-13T10:40:11;205.15;;;191.82;;
33254;SDS011;19623;52.482;9.762;2022-09-13T10:42:37;203.88;;;190.65;;
33254;SDS011;19623;52.482;9.762;2022-09-13T10:47:33;212.43;;;198.40;;
33254;SDS011;19623;52.482;9.762;2022-09-13T10:50:17;206.63;;;193.40;;
33254;SDS011;19623;52.482;9.762;2022-09-13T10:52:48;210.13;;;196.57;;
33254;SDS011;19623;52.482;9.762;2022-09-13T10:57:44;229.32;;;214.52;;
33254;SDS011;19623;52.482;9.762;2022-09-13T11:00:12;200.55;;;187.65;;
33254;SDS011;19623;52.482;9.762;2022-09-13T11:05:08;294.50;;;274.98;;
33254;SDS011;19623;52.482;9.762;2022-09-13T11:11:14;290.42;;;271.25;;
33254;SDS011;19623;52.482;9.762;2022-09-13T11:14:11;243.20;;;226.88;;
33254;SDS011;19623;52.482;9.762;2022-09-13T11:28:33;259.35;;;242.48;;
33254;SDS011;19623;52.482;9.762;2022-09-13T11:47:47;288.67;;;269.50;;
33254;SDS011;19623;52.482;9.762;2022-09-13T11:50:19;261.55;;;243.95;;
33254;SDS011;19623;52.482;9.762;2022-09-13T11:52:58;288.50;;;269.15;;
33254;SDS011;19623;52.482;9.762;2022-09-13T11:58:18;304.33;;;284.17;;
33254;SDS011;19623;52.482;9.762;2022-09-13T12:01:05;277.80;;;259.48;;
33254;SDS011;19623;52.482;9.762;2022-09-13T12:03:39;297.58;;;277.90;;
33254;SDS011;19623;52.482;9.762;2022-09-13T12:06:11;262.77;;;245.77;;
33254;SDS011;19623;52.482;9.762;2022-09-13T12:08:47;254.07;;;237.73;;
33254;SDS011;19623;52.482;9.762;2022-09-13T12:11:18;257.52;;;240.70;;
33254;SDS011;19623;52.482;9.762;2022-09-13T12:13:56;264.92;;;247.93;;
33254;SDS011;19623;52.482;9.762;2022-09-13T12:16:49;209.90;;;196.47;;
33254;SDS011;19623;52.482;9.762;2022-09-13T12:19:26;231.15;;;216.35;;
33254;SDS011;19623;52.482;9.762;2022-09-13T12:22:04;227.10;;;212.23;;
33254;SDS011;19623;52.482;9.762;2022-09-13T12:24:42;236.15;;;220.77;;
33254;SDS011;19623;52.482;9.762;2022-09-13T12:32:50;243.15;;;227.40;;
33254;SDS011;19623;52.482;9.762;2022-09-13T12:38:05;244.07;;;229.00;;
33254;SDS011;19623;52.482;9.762;2022-09-13T13:00:32;210.68;;;197.98;;
33254;SDS011;19623;52.482;9.762;2022-09-13T13:05:33;225.00;;;211.52;;
33254;SDS011;19623;52.482;9.762;2022-09-13T13:08:44;247.55;;;232.65;;
33254;SDS011;19623;52.482;9.762;2022-09-13T13:11:02;263.77;;;247.52;;
33254;SDS011;19623;52.482;9.762;2022-09-13T13:19:00;501.48;;;465.80;;
33254;SDS011;19623;52.482;9.762;2022-09-13T13:21:29;475.38;;;442.40;;
33254;SDS011;19623;52.482;9.762;2022-09-13T13:26:48;447.45;;;416.98;;
33254;SDS011;19623;52.482;9.762;2022-09-13T13:29:22;438.58;;;408.90;;
33254;SDS011;19623;52.482;9.762;2022-09-13T13:40:08;396.38;;;370.20;;
33254;SDS011;19623;52.482;9.762;2022-09-13T13:42:45;373.35;;;349.08;;
33254;SDS011;19623;52.482;9.762;2022-09-13T13:45:22;392.40;;;366.48;;
33254;SDS011;19623;52.482;9.762;2022-09-13T13:48:06;393.10;;;367.33;;
33254;SDS011;19623;52.482;9.762;2022-09-13T13:50:35;403.27;;;376.35;;
33254;SDS011;19623;52.482;9.762;2022-09-13T13:53:51;400.30;;;374.02;;
33254;SDS011;19623;52.482;9.762;2022-09-13T14:01:29;354.67;;;331.75;;
33254;SDS011;19623;52.482;9.762;2022-09-13T14:06:52;340.58;;;318.90;;
33254;SDS011;19623;52.482;9.762;2022-09-13T14:12:41;318.70;;;298.50;;
33254;SDS011;19623;52.482;9.762;2022-09-13T14:20:37;308.27;;;288.92;;
33254;SDS011;19623;52.482;9.762;2022-09-13T14:23:21;312.38;;;292.63;;
33254;SDS011;19623;52.482;9.762;2022-09-13T14:25:52;310.52;;;290.60;;
33254;SDS011;19623;52.482;9.762;2022-09-13T14:28:20;306.25;;;286.77;;
33254;SDS011;19623;52.482;9.762;2022-09-13T14:30:47;301.25;;;282.20;;
33254;SDS011;19623;52.482;9.762;2022-09-13T14:33:22;300.50;;;281.60;;
33254;SDS011;19623;52.482;9.762;2022-09-13T14:36:15;297.75;;;278.67;;
33254;SDS011;19623;52.482;9.762;2022-09-13T14:38:51;316.65;;;296.55;;
33254;SDS011;19623;52.482;9.762;2022-09-13T14:41:28;514.72;;;477.55;;
33254;SDS011;19623;52.482;9.762;2022-09-13T14:44:15;476.67;;;443.25;;
33254;SDS011;19623;52.482;9.762;2022-09-13T14:46:52;481.58;;;447.50;;
33254;SDS011;19623;52.482;9.762;2022-09-13T14:49:26;457.38;;;425.75;;
33254;SDS011;19623;52.482;9.762;2022-09-13T14:52:07;447.05;;;416.20;;
33254;SDS011;19623;52.482;9.762;2022-09-13T14:54:43;423.70;;;394.98;;
33254;SDS011;19623;52.482;9.762;2022-09-13T15:02:51;382.98;;;358.00;;
33254;SDS011;19623;52.482;9.762;2022-09-13T15:05:20;387.92;;;362.35;;
33254;SDS011;19623;52.482;9.762;2022-09-13T15:07:48;390.85;;;364.70;;
33254;SDS011;19623;52.482;9.762;2022-09-13T15:12:51;360.75;;;337.15;;
33254;SDS011;19623;52.482;9.762;2022-09-13T15:17:50;332.75;;;311.38;;
33254;SDS011;19623;52.482;9.762;2022-09-13T15:20:23;327.67;;;306.73;;
33254;SDS011;19623;52.482;9.762;2022-09-13T15:22:51;315.63;;;295.10;;
33254;SDS011;19623;52.482;9.762;2022-09-13T15:25:27;321.38;;;300.83;;
33254;SDS011;19623;52.482;9.762;2022-09-13T15:27:56;314.27;;;294.55;;
33254;SDS011;19623;52.482;9.762;2022-09-13T15:35:38;308.88;;;289.30;;
33254;SDS011;19623;52.482;9.762;2022-09-13T15:38:16;323.75;;;303.33;;
33254;SDS011;19623;52.482;9.762;2022-09-13T15:41:28;266.17;;;249.63;;
33254;SDS011;19623;52.482;9.762;2022-09-13T15:43:43;326.58;;;305.75;;
33254;SDS011;19623;52.482;9.762;2022-09-13T15:46:15;299.58;;;280.30;;
33254;SDS011;19623;52.482;9.762;2022-09-13T15:51:30;315.92;;;295.75;;
33254;SDS011;19623;52.482;9.762;2022-09-13T15:53:56;319.05;;;298.92;;
33254;SDS011;19623;52.482;9.762;2022-09-13T15:56:27;324.45;;;303.65;;
33254;SDS011;19623;52.482;9.762;2022-09-13T15:58:56;324.13;;;303.40;;
33254;SDS011;19623;52.482;9.762;2022-09-13T16:01:23;329.45;;;308.40;;
33254;SDS011;19623;52.482;9.762;2022-09-13T16:03:48;299.27;;;280.50;;
33254;SDS011;19623;52.482;9.762;2022-09-13T16:06:14;302.83;;;283.83;;
33254;SDS011;19623;52.482;9.762;2022-09-13T16:08:40;331.45;;;310.58;;
33254;SDS011;19623;52.482;9.762;2022-09-13T16:11:06;309.33;;;290.10;;
33254;SDS011;19623;52.482;9.762;2022-09-13T16:13:32;298.55;;;279.92;;
33254;SDS011;19623;52.482;9.762;2022-09-13T16:15:57;306.77;;;287.15;;
33254;SDS011;19623;52.482;9.762;2022-09-13T16:18:23;285.15;;;267.48;;
33254;SDS011;19623;52.482;9.762;2022-09-13T16:20:49;311.85;;;292.25;;
33254;SDS011;19623;52.482;9.762;2022-09-13T16:23:15;328.52;;;307.80;;
33254;SDS011;19623;52.482;9.762;2022-09-13T16:25:41;312.80;;;293.10;;
33254;SDS011;19623;52.482;9.762;2022-09-13T16:28:13;283.67;;;266.20;;
33254;SDS011;19623;52.482;9.762;2022-09-13T16:30:41;400.73;;;374.15;;
33254;SDS011;19623;52.482;9.762;2022-09-13T16:33:07;401.88;;;374.67;;
33254;SDS011;19623;52.482;9.762;2022-09-13T16:35:33;386.83;;;361.30;;
33254;SDS011;19623;52.482;9.762;2022-09-13T16:37:58;386.48;;;361.08;;
33254;SDS011;19623;52.482;9.762;2022-09-13T16:40:24;422.85;;;394.63;;
33254;SDS011;19623;52.482;9.762;2022-09-13T16:42:50;399.02;;;372.58;;
33254;SDS011;19623;52.482;9.762;2022-09-13T16:45:16;384.63;;;358.77;;
33254;SDS011;19623;52.482;9.762;2022-09-13T16:47:42;408.25;;;381.15;;
33254;SDS011;19623;52.482;9.762;2022-09-13T16:50:08;405.63;;;378.67;;
33254;SDS011;19623;52.482;9.762;2022-09-13T16:52:34;392.35;;;366.48;;
33254;SDS011;19623;52.482;9.762;2022-09-13T16:55:00;360.27;;;336.88;;
33254;SDS011;19623;52.482;9.762;2022-09-13T16:57:26;400.38;;;374.00;;
33254;SDS011;19623;52.482;9.762;2022-09-13T16:59:52;386.10;;;360.73;;
33254;SDS011;19623;52.482;9.762;2022-09-13T17:02:20;367.88;;;343.90;;
33254;SDS011;19623;52.482;9.762;2022-09-13T17:04:46;377.45;;;352.80;;
33254;SDS011;19623;52.482;9.762;2022-09-13T17:07:12;378.30;;;353.48;;
33254;SDS011;19623;52.482;9.762;2022-09-13T17:09:38;383.20;;;357.73;;
33254;SDS011;19623;52.482;9.762;2022-09-13T17:12:05;356.83;;;333.67;;
33254;SDS011;19623;52.482;9.762;2022-09-13T17:14:35;391.05;;;365.33;;
33254;SDS011;19623;52.482;9.762;2022-09-13T17:17:01;412.95;;;385.40;;
33254;SDS011;19623;52.482;9.762;2022-09-13T17:19:28;405.50;;;378.45;;
33254;SDS011;19623;52.482;9.762;2022-09-13T17:21:57;346.00;;;324.27;;
33254;SDS011;19623;52.482;9.762;2022-09-13T17:24:25;380.13;;;355.00;;
33254;SDS011;19623;52.482;9.762;2022-09-13T17:26:52;401.60;;;375.20;;
33254;SDS011;19623;52.482;9.762;2022-09-13T17:29:18;409.42;;;382.05;;
33254;SDS011;19623;52.482;9.762;2022-09-13T17:31:44;395.02;;;368.88;;
33254;SDS011;19623;52.482;9.762;2022-09-13T17:34:10;398.17;;;371.58;;
33254;SDS011;19623;52.482;9.762;2022-09-13T17:36:40;413.77;;;385.77;;
33254;SDS011;19623;52.482;9.762;2022-09-13T17:39:17;421.52;;;393.05;;
33254;SDS011;19623;52.482;9.762;2022-09-13T17:41:44;408.23;;;380.77;;
33254;SDS011;19623;52.482;9.762;2022-09-13T17:44:12;418.23;;;390.15;;
33254;SDS011;19623;52.482;9.762;2022-09-13T17:46:40;414.42;;;386.60;;
33254;SDS011;19623;52.482;9.762;2022-09-13T17:49:05;389.08;;;363.77;;
33254;SDS011;19623;52.482;9.762;2022-09-13T17:51:34;387.13;;;361.88;;
33254;SDS011;19623;52.482;9.762;2022-09-13T17:54:15;399.27;;;372.77;;
33254;SDS011;19623;52.482;9.762;2022-09-13T17:56:44;404.05;;;377.17;;
33254;SDS011;19623;52.482;9.762;2022-09-13T17:59:14;387.13;;;361.52;;